Time;durP1;ratioP1;P1;durP2;ratioP2;P2;SDS_P1;SDS_P2;PMS_P1;PMS_P2;Temp;Humidity;BMP_temperature;BMP_pressure;BME280_temperature;BME280_humidity;BME280_pressure;Samples;Min_cycle;Max_cycle;Signal;HPM_P1;HPM_P2
2022/06/17 00:01:23;;;;;;;2.97;1.40;;;;;;;12.41;68.34;100877.13;5053431;28;20147;-65
2022/06/17 00:03:51;;;;;;;2.67;1.67;;;;;;;12.38;68.47;100870.31;5053335;28;20043;-63
2022/06/17 00:06:19;;;;;;;3.73;1.73;;;;;;;12.42;68.78;100870.78;5053286;28;20080;-64
2022/06/17 00:08:49;;;;;;;2.50;1.90;;;;;;;12.34;68.63;100858.31;5053536;28;20120;-65
2022/06/17 00:11:23;;;;;;;1.90;1.70;;;;;;;12.39;68.15;100865.78;5053970;28;20492;-64
2022/06/17 00:13:49;;;;;;;1.70;1.57;;;;;;;11.92;68.66;100802.53;5053888;28;20041;-67
2022/06/17 00:16:18;;;;;;;1.43;1.33;;;;;;;12.36;68.21;100871.47;5052852;28;20496;-68
2022/06/17 00:18:43;;;;;;;2.25;1.60;;;;;;;12.26;68.12;100860.16;5053002;28;20147;-66
2022/06/17 00:21:29;;;;;;;2.00;1.80;;;;;;;12.32;68.00;100859.47;5052761;28;20560;-66
2022/06/17 00:23:55;;;;;;;1.57;1.23;;;;;;;12.18;68.57;100841.50;5051721;28;20037;-65
2022/06/17 00:26:21;;;;;;;2.40;1.57;;;;;;;12.27;68.28;100867.19;5053044;28;20087;-66
2022/06/17 00:28:48;;;;;;;2.37;1.60;;;;;;;12.29;68.22;100865.16;5053286;28;20052;-66
2022/06/17 00:31:14;;;;;;;2.27;1.50;;;;;;;12.21;68.05;100851.84;5053022;28;20033;-65
2022/06/17 00:33:40;;;;;;;5.23;1.93;;;;;;;12.31;67.70;100860.50;5052789;28;20041;-66
2022/06/17 00:36:09;;;;;;;2.47;1.53;;;;;;;12.28;67.25;100858.16;5052658;28;20051;-64
2022/06/17 00:38:36;;;;;;;3.67;1.70;;;;;;;12.22;67.11;100853.50;5052833;28;20028;-65
2022/06/17 00:41:26;;;;;;;1.40;1.30;;;;;;;12.19;67.27;100848.53;5052559;28;20385;-66
2022/06/17 00:44:30;;;;;;;2.03;1.43;;;;;;;12.18;67.02;100858.38;5052593;28;20059;-66
2022/06/17 00:47:10;;;;;;;;;;;;;;;12.29;66.98;100865.16;5053185;28;20049;-63
2022/06/17 00:49:51;;;;;;;2.87;1.33;;;;;;;12.21;66.97;100858.03;5052324;28;19917;-65
2022/06/17 00:52:23;;;;;;;1.37;1.27;;;;;;;12.17;66.68;100847.84;5052169;28;20045;-63
2022/06/17 00:54:58;;;;;;;1.77;1.10;;;;;;;12.26;66.96;100857.50;5052377;28;20037;-64
2022/06/17 00:57:29;;;;;;;1.47;1.37;;;;;;;12.31;66.92;100857.81;5052108;28;20107;-64
2022/06/17 01:00:04;;;;;;;1.83;1.40;;;;;;;12.34;66.66;100857.47;5052344;28;20049;-63
2022/06/17 01:02:35;;;;;;;3.27;1.37;;;;;;;12.24;66.84;100848.84;5052237;28;20550;-65
2022/06/17 01:05:02;;;;;;;1.40;1.30;;;;;;;12.34;66.83;100854.78;5051713;28;20049;-63
2022/06/17 01:07:35;;;;;;;1.10;1.00;;;;;;;12.09;66.42;100817.47;5052192;28;20613;-63
2022/06/17 01:10:08;;;;;;;1.40;1.30;;;;;;;12.27;66.45;100838.63;5052201;28;20618;-67
2022/06/17 01:12:42;;;;;;;2.40;1.37;;;;;;;12.40;66.98;100859.44;5052220;28;20048;-65
2022/06/17 01:15:08;;;;;;;1.30;1.20;;;;;;;12.34;67.38;100852.97;5050849;28;20064;-65
2022/06/17 01:17:39;;;;;;;2.53;1.67;;;;;;;12.28;67.11;100836.78;5052086;28;20171;-65
2022/06/17 01:20:07;;;;;;;1.40;1.30;;;;;;;12.36;67.95;100858.13;5052343;28;20033;-65
2022/06/17 01:22:51;;;;;;;1.88;1.67;;;;;;;12.24;67.81;100848.84;5053750;28;20488;-65
2022/06/17 01:25:37;;;;;;;1.40;1.27;;;;;;;12.32;68.01;100864.81;5054412;28;20048;-64
2022/06/17 01:28:16;;;;;;;1.97;1.60;;;;;;;12.21;68.17;100847.34;5054345;28;20071;-62
2022/06/17 01:30:50;;;;;;;3.10;1.57;;;;;;;12.30;68.08;100872.19;5053925;28;20086;-64
2022/06/17 01:33:18;;;;;;;1.63;1.40;;;;;;;12.25;68.11;100861.19;5052344;28;20074;-67
2022/06/17 01:36:01;;;;;;;4.15;1.15;;;;;;;12.31;67.59;100865.81;5050572;28;20037;-64
2022/06/17 01:38:29;;;;;;;1.93;1.50;;;;;;;12.36;67.32;100855.47;5050544;28;20045;-63
2022/06/17 01:40:57;;;;;;;1.33;1.23;;;;;;;12.54;66.71;100874.78;5052036;28;20052;-66
2022/06/17 01:43:29;;;;;;;0.98;0.88;;;;;;;12.53;66.25;100851.75;5051806;28;20047;-66
2022/06/17 01:46:09;;;;;;;3.03;1.40;;;;;;;12.68;65.82;100849.97;5051860;28;20528;-62
2022/06/17 01:48:38;;;;;;;1.50;1.30;;;;;;;12.76;65.50;100857.16;5051709;28;20043;-65
2022/06/17 01:51:04;;;;;;;;;;;;;;;12.84;65.32;100865.13;5051882;28;20479;-64
2022/06/17 01:53:33;;;;;;;1.43;1.23;;;;;;;12.75;65.62;100860.00;5051691;28;19923;-64
2022/06/17 01:56:05;;;;;;;1.37;1.20;;;;;;;12.77;65.81;100863.34;5051548;28;20052;-64
2022/06/17 01:58:40;;;;;;;1.23;1.13;;;;;;;12.71;65.89;100865.66;5051618;28;20037;-64
2022/06/17 02:01:08;;;;;;;1.43;1.10;;;;;;;12.81;65.70;100875.34;5051797;28;20051;-65
2022/06/17 02:03:52;;;;;;;2.15;1.20;;;;;;;12.85;65.39;100849.91;5051585;28;20052;-64
2022/06/17 02:06:26;;;;;;;1.43;1.17;;;;;;;12.95;64.15;100874.59;5051747;28;20041;-64
2022/06/17 02:08:53;;;;;;;1.30;1.10;;;;;;;12.80;63.96;100877.19;5051605;28;20398;-64
2022/06/17 02:11:19;;;;;;;1.23;1.13;;;;;;;12.71;64.07;100879.03;5051644;28;20040;-67
2022/06/17 02:13:45;;;;;;;1.10;1.00;;;;;;;12.57;64.08;100866.41;5051327;28;20047;-64
2022/06/17 02:16:11;;;;;;;2.20;1.23;;;;;;;12.52;64.63;100866.09;5052286;28;20037;-66
2022/06/17 02:18:40;;;;;;;1.77;1.10;;;;;;;12.52;64.68;100867.94;5055438;28;20041;-64
2022/06/17 02:21:13;;;;;;;1.47;1.37;;;;;;;12.48;64.66;100863.94;5055380;28;20036;-65
2022/06/17 02:23:39;;;;;;;1.30;1.20;;;;;;;12.46;64.72;100876.66;5055105;28;20094;-66
2022/06/17 02:26:07;;;;;;;1.93;1.20;;;;;;;12.49;65.17;100877.13;5055028;28;20446;-64
2022/06/17 02:28:35;;;;;;;1.08;0.98;;;;;;;12.34;65.46;100847.63;5055596;28;20029;-62
2022/06/17 02:31:02;;;;;;;1.35;1.08;;;;;;;12.43;65.36;100877.78;5055087;28;20037;-64
2022/06/17 02:33:29;;;;;;;2.00;1.77;;;;;;;12.44;65.56;100871.47;5055181;28;20393;-64
2022/06/17 02:36:03;;;;;;;1.33;1.13;;;;;;;12.55;65.35;100884.44;5055191;28;20025;-66
2022/06/17 02:38:32;;;;;;;1.30;1.20;;;;;;;12.62;64.92;100885.41;5054840;28;20029;-65
2022/06/17 02:41:07;;;;;;;1.33;1.13;;;;;;;12.62;65.10;100874.72;5055012;28;20039;-66
2022/06/17 02:43:42;;;;;;;2.80;1.00;;;;;;;12.67;64.98;100883.06;5054849;28;20504;-65
2022/06/17 02:46:15;;;;;;;1.50;1.20;;;;;;;12.59;65.18;100871.56;5054955;28;20072;-65
2022/06/17 02:48:57;;;;;;;1.77;1.27;;;;;;;12.78;65.07;100895.22;5054915;28;20029;-66
2022/06/17 02:51:25;;;;;;;1.30;1.17;;;;;;;12.81;65.11;100886.84;5054616;28;20095;-63
2022/06/17 02:53:51;;;;;;;1.58;1.00;;;;;;;12.77;65.23;100890.06;5055104;28;20123;-65
2022/06/17 02:56:21;;;;;;;2.73;1.33;;;;;;;12.60;65.02;100868.72;5054672;28;20079;-63
2022/06/17 02:59:17;;;;;;;1.80;1.13;;;;;;;12.71;65.85;100887.03;5053633;28;20405;-64
2022/06/17 03:01:44;;;;;;;2.13;1.07;;;;;;;12.58;65.17;100876.09;5054301;28;20433;-65
2022/06/17 03:04:17;;;;;;;1.87;1.10;;;;;;;12.66;65.96;100889.41;5054715;28;20048;-64
2022/06/17 03:06:46;;;;;;;1.90;1.00;;;;;;;12.69;66.10;100881.03;5054809;28;20082;-64
2022/06/17 03:09:32;;;;;;;5.50;1.00;;;;;;;12.65;66.15;100873.56;5053128;28;20033;-65
2022/06/17 03:11:58;;;;;;;3.93;1.27;;;;;;;12.69;66.57;100873.03;5054287;28;20064;-64
2022/06/17 03:14:28;;;;;;;1.47;1.23;;;;;;;12.66;66.84;100873.38;5054041;28;20037;-65
2022/06/17 03:16:57;;;;;;;1.20;1.10;;;;;;;12.45;67.63;100851.78;5054407;28;20032;-65
2022/06/17 03:19:26;;;;;;;3.33;2.73;;;;;;;12.61;68.84;100861.56;5053966;28;20408;-65
2022/06/17 03:21:52;;;;;;;2.50;1.37;;;;;;;12.51;68.71;100856.41;5052828;28;20037;-64
2022/06/17 03:24:57;;;;;;;3.20;1.20;;;;;;;12.74;69.19;100879.72;5053888;28;20396;-65
2022/06/17 03:27:50;;;;;;;2.00;1.30;;;;;;;12.75;68.59;100878.72;5042510;28;20056;-67
2022/06/17 03:30:31;;;;;;;1.40;1.30;;;;;;;12.78;69.74;100875.69;5054143;28;20465;-65
2022/06/17 03:33:13;;;;;;;2.13;1.40;;;;;;;12.53;69.39;100830.38;5053953;28;20124;-65
2022/06/17 03:35:42;;;;;;;2.33;1.20;;;;;;;12.87;68.78;100882.66;5054116;28;20400;-66
2022/06/17 03:38:19;;;;;;;;;;;;;;;12.93;68.25;100879.28;5054243;28;20033;-64
2022/06/17 03:40:49;;;;;;;1.40;1.27;;;;;;;12.79;69.20;100872.84;5053896;28;19955;-66
2022/06/17 03:43:29;;;;;;;2.10;1.47;;;;;;;12.87;69.06;100874.63;5053922;28;20048;-65
2022/06/17 03:46:00;;;;;;;1.53;1.17;;;;;;;12.82;68.60;100872.50;5052689;28;20040;-64
2022/06/17 03:48:42;;;;;;;2.93;1.20;;;;;;;12.89;69.15;100873.44;5052727;28;20072;-68
2022/06/17 03:51:15;;;;;;;1.80;1.27;;;;;;;12.91;69.64;100870.59;5053893;28;20435;-65
2022/06/17 03:53:42;;;;;;;2.60;1.10;;;;;;;12.99;69.44;100883.91;5053771;28;20111;-66
2022/06/17 03:56:20;;;;;;;2.10;1.33;;;;;;;12.92;68.77;100880.28;5053926;28;20153;-63
2022/06/17 03:58:46;;;;;;;1.10;1.00;;;;;;;12.74;68.98;100877.03;5053651;28;20041;-65
2022/06/17 04:01:27;;;;;;;1.73;1.30;;;;;;;12.75;70.10;100876.03;5053340;28;20033;-65
2022/06/17 04:04:00;;;;;;;3.10;1.50;;;;;;;12.71;70.71;100875.53;5053312;28;20439;-65
2022/06/17 04:06:30;;;;;;;2.73;1.50;;;;;;;12.74;70.80;100885.06;5053564;28;20039;-65
2022/06/17 04:09:04;;;;;;;1.37;1.27;;;;;;;12.77;70.63;100895.41;5053642;28;20074;-64
2022/06/17 04:11:35;;;;;;;1.70;1.47;;;;;;;12.63;71.34;100873.72;5053508;28;20091;-63
2022/06/17 04:14:05;;;;;;;1.97;1.77;;;;;;;12.66;71.21;100877.88;5052168;28;20078;-66
2022/06/17 04:16:50;;;;;;;2.17;1.83;;;;;;;12.68;71.39;100890.06;5053479;28;20075;-67
2022/06/17 04:19:19;;;;;;;1.73;1.30;;;;;;;12.58;70.99;100867.25;5053133;28;20037;-64
2022/06/17 04:21:44;;;;;;;2.33;1.63;;;;;;;12.66;70.41;100892.09;5052767;28;20033;-64
2022/06/17 04:24:17;;;;;;;1.10;1.00;;;;;;;12.74;69.76;100895.75;5052777;28;20496;-65
2022/06/17 04:26:47;;;;;;;1.80;1.30;;;;;;;12.70;70.01;100882.72;5052753;28;20045;-64
2022/06/17 04:29:20;;;;;;;2.50;2.30;;;;;;;12.76;70.24;100893.75;5053156;28;20072;-65
2022/06/17 04:31:58;;;;;;;1.47;1.37;;;;;;;12.83;70.05;100879.50;5052685;28;20037;-65
2022/06/17 04:34:24;;;;;;;2.83;1.40;;;;;;;13.07;69.32;100891.91;5052810;28;20042;-65
2022/06/17 04:36:53;;;;;;;1.70;1.50;;;;;;;13.23;69.18;100894.50;5052744;28;20040;-66
2022/06/17 04:39:32;;;;;;;2.73;1.40;;;;;;;13.14;68.32;100879.50;5051931;28;20032;-65
2022/06/17 04:42:02;;;;;;;5.53;1.60;;;;;;;13.34;68.81;100887.94;5052632;28;20044;-64
2022/06/17 04:44:28;;;;;;;3.10;1.40;;;;;;;13.47;68.02;100887.34;5052449;28;20436;-65
2022/06/17 04:46:59;;;;;;;1.40;1.30;;;;;;;13.67;67.18;100899.22;5052638;28;20071;-66
2022/06/17 04:49:31;;;;;;;3.53;1.30;;;;;;;13.86;66.97;100885.34;5051428;28;20134;-64
2022/06/17 04:52:04;;;;;;;5.17;2.03;;;;;;;13.86;66.39;100865.75;5052345;28;20407;-65
2022/06/17 04:54:31;;;;;;;3.00;1.53;;;;;;;14.14;65.90;100904.31;5052398;28;20037;-65
2022/06/17 04:57:01;;;;;;;3.50;1.70;;;;;;;14.12;65.35;100902.84;5051023;28;20056;-66
2022/06/17 04:59:40;;;;;;;4.30;1.87;;;;;;;14.54;64.36;100892.41;5052353;28;20056;-65
2022/06/17 05:02:13;;;;;;;1.73;1.63;;;;;;;15.45;60.88;100892.84;5052396;28;20037;-65
2022/06/17 05:04:39;;;;;;;2.37;1.70;;;;;;;16.12;58.99;100895.13;5052047;28;20068;-63
2022/06/17 05:07:04;;;;;;;2.13;1.80;;;;;;;17.01;56.16;100904.13;5052347;28;20451;-65
2022/06/17 05:10:01;;;;;;;2.07;1.40;;;;;;;17.48;53.60;100882.72;5052270;28;20036;-64
2022/06/17 05:12:59;;;;;;;1.98;1.30;;;;;;;17.00;54.80;100909.72;5051988;28;20041;-66
2022/06/17 05:15:26;;;;;;;3.97;1.87;;;;;;;16.55;56.36;100903.88;5034246;28;20045;-65
2022/06/17 05:17:52;;;;;;;4.17;1.50;;;;;;;16.45;56.00;100900.72;5052052;28;20127;-63
2022/06/17 05:20:20;;;;;;;1.83;1.40;;;;;;;16.09;56.86;100911.63;5050908;28;20144;-64
2022/06/17 05:22:45;;;;;;;1.50;1.25;;;;;;;15.62;58.53;100918.47;5051849;28;20048;-64
2022/06/17 05:25:19;;;;;;;3.00;1.50;;;;;;;15.52;57.64;100917.91;5051685;28;20435;-66
2022/06/17 05:27:45;;;;;;;1.20;1.10;;;;;;;15.31;58.03;100899.91;5051920;28;20036;-64
2022/06/17 05:30:12;;;;;;;3.57;1.73;;;;;;;15.61;58.48;100916.81;5051685;28;20033;-65
2022/06/17 05:32:40;;;;;;;6.20;1.87;;;;;;;15.59;57.53;100897.34;5051967;28;20064;-65
2022/06/17 05:35:06;;;;;;;2.42;2.10;;;;;;;15.38;56.86;100851.72;5051622;28;20033;-65
2022/06/17 05:37:32;;;;;;;3.33;1.60;;;;;;;15.70;57.19;100893.34;5051625;28;20498;-67
2022/06/17 05:39:57;;;;;;;2.50;1.90;;;;;;;15.89;57.29;100911.44;5051516;28;20519;-65
2022/06/17 05:42:23;;;;;;;5.73;1.93;;;;;;;15.65;57.87;100896.59;5051744;28;20487;-66
2022/06/17 05:44:48;;;;;;;2.07;1.20;;;;;;;15.19;58.13;100925.59;5050799;28;20036;-65
2022/06/17 05:47:14;;;;;;;8.57;1.80;;;;;;;14.81;59.85;100922.25;5051067;28;20536;-65
2022/06/17 05:49:40;;;;;;;5.13;1.60;;;;;;;14.46;60.25;100907.75;5052480;28;20048;-65
2022/06/17 05:52:06;;;;;;;2.30;1.30;;;;;;;14.21;61.15;100899.91;5054951;28;20037;-67
2022/06/17 05:54:32;;;;;;;5.17;1.70;;;;;;;14.20;61.37;100910.81;5056165;28;20033;-65
2022/06/17 05:56:58;;;;;;;3.23;1.13;;;;;;;14.22;61.49;100930.22;5056379;28;20424;-65
2022/06/17 05:59:24;;;;;;;2.10;1.40;;;;;;;14.13;62.09;100920.56;5058883;28;20045;-65
2022/06/17 06:01:49;;;;;;;2.73;1.50;;;;;;;14.14;62.23;100924.91;5062844;28;20381;-67
2022/06/17 06:04:15;;;;;;;4.97;1.40;;;;;;;13.98;62.43;100898.31;5060021;28;20037;-67
2022/06/17 06:06:40;;;;;;;5.70;1.70;;;;;;;14.04;62.88;100932.38;5058442;28;20032;-67
2022/06/17 06:09:06;;;;;;;1.83;1.30;;;;;;;13.98;62.56;100917.03;5059048;28;20045;-66
2022/06/17 06:11:31;;;;;;;5.37;1.77;;;;;;;13.77;62.60;100915.03;5057328;28;20029;-67
2022/06/17 06:13:57;;;;;;;2.07;1.40;;;;;;;13.79;62.94;100921.88;5038713;28;20094;-66
2022/06/17 06:16:23;;;;;;;2.60;1.50;;;;;;;13.54;63.57;100920.38;5056413;28;20439;-66
2022/06/17 06:18:50;;;;;;;3.37;1.47;;;;;;;13.63;63.90;100930.03;5056177;28;20126;-63
2022/06/17 06:21:17;;;;;;;7.13;1.37;;;;;;;13.68;63.83;100910.78;5056173;28;20111;-65
2022/06/17 06:23:42;;;;;;;5.03;1.60;;;;;;;14.07;63.03;100929.34;5055556;28;20040;-63
2022/06/17 06:26:15;;;;;;;3.33;1.67;;;;;;;14.20;62.79;100921.53;5055810;28;20492;-65
2022/06/17 06:28:40;;;;;;;4.57;1.60;;;;;;;14.39;62.19;100934.38;5055741;28;20080;-64
2022/06/17 06:31:19;;;;;;;1.83;1.37;;;;;;;14.50;62.05;100922.44;5055313;28;20057;-65
2022/06/17 06:33:45;;;;;;;8.97;2.03;;;;;;;14.80;61.01;100933.97;5055418;28;20549;-64
2022/06/17 06:36:10;;;;;;;6.73;2.03;;;;;;;15.06;60.34;100928.13;5054835;28;20341;-64
2022/06/17 06:38:36;;;;;;;3.43;1.80;;;;;;;15.24;59.28;100935.75;5055213;28;20033;-66
2022/06/17 06:41:02;;;;;;;4.80;1.50;;;;;;;15.36;58.17;100942.31;5055068;28;20476;-65
2022/06/17 06:43:28;;;;;;;1.73;1.43;;;;;;;15.27;58.22;100935.38;5054828;28;20037;-65
2022/06/17 06:45:54;;;;;;;5.53;2.27;;;;;;;15.18;58.77;100927.44;5053839;28;20032;-63
2022/06/17 06:48:23;;;;;;;4.50;1.73;;;;;;;14.97;59.34;100934.59;5054760;28;20541;-64
2022/06/17 06:50:49;;;;;;;4.30;1.67;;;;;;;14.64;59.99;100944.88;5054731;28;20040;-67
2022/06/17 06:53:15;;;;;;;4.40;2.00;;;;;;;14.30;61.30;100932.81;5054529;28;20502;-67
2022/06/17 06:55:41;;;;;;;7.50;2.00;;;;;;;14.28;62.60;100956.28;5054594;28;20138;-68
2022/06/17 06:58:14;;;;;;;3.10;1.70;;;;;;;13.97;62.43;100921.56;5054494;28;20045;-65
2022/06/17 07:00:43;;;;;;;6.10;1.60;;;;;;;13.78;62.82;100914.03;5054808;28;20535;-66
2022/06/17 07:03:09;;;;;;;3.57;1.93;;;;;;;13.77;63.44;100948.00;5053751;28;20037;-67
2022/06/17 07:05:38;;;;;;;2.47;1.40;;;;;;;13.58;64.21;100940.44;5054399;28;20404;-65
2022/06/17 07:08:05;;;;;;;3.93;1.50;;;;;;;13.58;64.81;100960.00;5054669;28;20086;-64
2022/06/17 07:10:34;;;;;;;6.30;2.20;;;;;;;13.70;64.83;100952.41;5054611;28;20131;-67
2022/06/17 07:13:00;;;;;;;;;;;;;;;13.90;64.02;100953.59;5055009;28;20048;-66
2022/06/17 07:15:28;;;;;;;4.53;2.13;;;;;;;14.07;63.36;100946.25;5054461;28;19916;-67
2022/06/17 07:18:15;;;;;;;2.38;1.58;;;;;;;14.10;62.41;100907.56;5054250;28;20440;-63
2022/06/17 07:20:45;;;;;;;4.88;1.42;;;;;;;14.62;61.65;100945.06;5054370;28;20492;-66
2022/06/17 07:23:17;;;;;;;3.40;1.80;;;;;;;14.97;61.12;100962.25;5053040;28;20446;-66
2022/06/17 07:25:43;;;;;;;5.83;1.73;;;;;;;15.13;60.14;100967.41;5054088;28;20472;-66
2022/06/17 07:28:14;;;;;;;1.83;1.70;;;;;;;14.93;59.88;100955.59;5055392;28;20033;-69
2022/06/17 07:30:40;;;;;;;4.13;1.63;;;;;;;14.72;60.22;100963.53;5054904;28;20033;-66
2022/06/17 07:33:06;;;;;;;5.50;1.40;;;;;;;14.59;60.44;100966.03;5052815;28;20063;-66
2022/06/17 07:35:31;;;;;;;1.50;1.40;;;;;;;14.60;60.82;100959.66;5054444;28;20121;-66
2022/06/17 07:40:47;;;;;;;6.77;1.67;;;;;;;14.85;59.68;100963.75;5053562;28;20033;-66
2022/06/17 07:43:18;;;;;;;1.93;1.40;;;;;;;14.77;60.07;100961.16;5053783;28;20511;-66
2022/06/17 07:45:44;;;;;;;8.07;2.27;;;;;;;15.04;59.96;100976.59;5053975;28;20033;-64
2022/06/17 07:48:12;;;;;;;4.63;2.03;;;;;;;15.28;58.55;100985.34;5052466;28;20107;-67
2022/06/17 07:50:38;;;;;;;2.72;1.60;;;;;;;15.27;58.21;100972.94;5054477;28;20037;-67
2022/06/17 07:53:31;;;;;;;1.80;1.60;;;;;;;14.49;58.25;100886.75;5053765;28;20052;-66
2022/06/17 07:56:05;;;;;;;3.45;1.90;;;;;;;15.04;58.79;100984.66;5052375;28;20075;-66
2022/06/17 07:58:31;;;;;;;2.77;1.50;;;;;;;14.85;58.09;100982.50;5053469;28;20106;-65
2022/06/17 08:00:56;;;;;;;1.47;1.33;;;;;;;14.48;58.64;100973.53;5053528;28;20399;-67
2022/06/17 08:03:22;;;;;;;2.90;1.63;;;;;;;14.37;59.34;100981.97;5053217;28;20033;-66
2022/06/17 08:05:51;;;;;;;2.90;1.37;;;;;;;14.32;59.98;100994.25;5053310;28;20036;-67
2022/06/17 08:08:21;;;;;;;5.63;1.70;;;;;;;14.22;60.65;100986.47;5053523;28;20039;-66
2022/06/17 08:10:53;;;;;;;1.57;1.33;;;;;;;14.29;60.26;100984.72;5053336;28;20124;-66
2022/06/17 08:13:20;;;;;;;4.67;1.87;;;;;;;14.56;59.34;100991.38;5052553;28;20054;-65
2022/06/17 08:15:46;;;;;;;3.07;1.50;;;;;;;15.05;58.78;100991.66;5051635;28;20029;-65
2022/06/17 08:18:12;;;;;;;5.43;1.70;;;;;;;15.31;58.22;101001.06;5052853;28;20037;-66
2022/06/17 08:20:38;;;;;;;5.20;1.83;;;;;;;15.42;58.33;101000.59;5053100;28;20056;-66
2022/06/17 08:23:05;;;;;;;9.43;2.67;;;;;;;15.28;57.64;100983.47;5053169;28;20489;-68
2022/06/17 08:25:32;;;;;;;4.60;1.47;;;;;;;15.25;57.37;101004.50;5053059;28;20036;-67
2022/06/17 08:28:02;;;;;;;8.57;2.23;;;;;;;15.04;58.08;100999.91;5052926;28;20095;-65
2022/06/17 08:30:31;;;;;;;5.97;1.97;;;;;;;15.02;58.40;100996.53;5053109;28;20043;-66
2022/06/17 08:32:57;;;;;;;3.33;1.63;;;;;;;15.01;58.12;101019.84;5052745;28;20071;-64
2022/06/17 08:35:27;;;;;;;6.37;1.83;;;;;;;14.69;59.60;100996.09;5053110;28;20124;-67
2022/06/17 08:38:01;;;;;;;9.00;2.10;;;;;;;14.64;59.65;100998.47;5052993;28;20068;-68
2022/06/17 08:40:43;;;;;;;8.03;1.80;;;;;;;14.69;59.87;101028.25;5052873;28;20037;-68
2022/06/17 08:43:39;;;;;;;2.90;1.90;;;;;;;14.70;60.31;101013.84;5052513;28;20076;-66
2022/06/17 08:46:14;;;;;;;7.97;2.43;;;;;;;15.02;60.55;101023.38;5052590;28;20039;-66
2022/06/17 08:49:01;;;;;;;2.77;1.60;;;;;;;15.19;60.24;101024.84;5052628;28;20037;-68
2022/06/17 08:51:45;;;;;;;3.60;1.73;;;;;;;15.11;59.81;101033.84;5052814;28;20040;-67
2022/06/17 08:54:20;;;;;;;5.43;2.83;;;;;;;14.94;60.44;101026.97;5052566;28;20132;-65
2022/06/17 08:57:00;;;;;;;4.30;1.90;;;;;;;14.77;61.15;101031.72;5052264;28;20052;-66
2022/06/17 08:59:47;;;;;;;2.40;1.80;;;;;;;14.50;61.97;101018.91;5052554;28;20052;-68
2022/06/17 09:02:50;;;;;;;5.60;2.10;;;;;;;14.40;63.25;101023.63;5053116;28;20037;-66
2022/06/17 09:05:33;;;;;;;4.47;1.50;;;;;;;14.53;63.08;101032.78;5029365;28;20056;-67
2022/06/17 09:08:04;;;;;;;1.63;1.53;;;;;;;14.66;63.10;101026.78;5052511;28;20068;-64
2022/06/17 09:10:57;;;;;;;5.50;1.70;;;;;;;15.10;60.84;101047.44;5052449;28;20052;-64
2022/06/17 09:13:31;;;;;;;1.70;1.60;;;;;;;15.33;58.98;101052.72;5054224;28;20033;-66
2022/06/17 09:16:22;;;;;;;8.80;2.37;;;;;;;15.39;59.81;101046.59;5055184;28;20119;-67
2022/06/17 09:18:55;;;;;;;4.03;1.77;;;;;;;15.35;59.84;101030.03;5054365;28;20037;-67
2022/06/17 09:21:30;;;;;;;3.97;1.40;;;;;;;15.29;59.26;101046.84;5056068;28;20404;-66
2022/06/17 09:24:01;;;;;;;4.90;2.00;;;;;;;14.89;60.29;101037.44;5055915;28;20037;-69
2022/06/17 09:26:33;;;;;;;4.70;1.93;;;;;;;14.62;61.34;101032.69;5056972;28;20457;-64
2022/06/17 09:29:22;;;;;;;7.00;2.13;;;;;;;14.15;61.89;100983.66;5056620;28;20123;-67
2022/06/17 09:31:55;;;;;;;6.30;2.30;;;;;;;14.65;62.29;101051.09;5054344;28;20056;-65
2022/06/17 09:34:44;;;;;;;3.43;1.67;;;;;;;14.32;62.06;100987.03;5055111;28;20385;-69
2022/06/17 09:37:37;;;;;;;3.00;1.93;;;;;;;14.95;61.40;101051.94;5054569;28;20033;-66
2022/06/17 09:40:11;;;;;;;4.53;1.80;;;;;;;15.21;60.46;101049.66;5055177;28;20047;-65
2022/06/17 09:42:43;;;;;;;8.63;2.50;;;;;;;15.67;59.25;101054.81;5053379;28;20083;-64
2022/06/17 09:45:15;;;;;;;2.70;1.97;;;;;;;15.99;58.82;101064.25;5053239;28;20045;-65
2022/06/17 09:48:04;;;;;;;2.93;1.23;;;;;;;16.03;58.21;101054.78;5052855;28;20123;-65
2022/06/17 09:50:36;;;;;;;6.30;2.70;;;;;;;15.78;58.53;101036.34;5050788;28;20454;-66
2022/06/17 09:53:10;;;;;;;2.80;2.23;;;;;;;15.61;59.49;101056.41;5051946;28;20035;-65
2022/06/17 09:55:52;;;;;;;3.03;1.63;;;;;;;15.26;60.51;101062.50;5052012;28;20143;-64
2022/06/17 09:58:28;;;;;;;5.57;1.70;;;;;;;15.03;60.97;101067.94;5051420;28;20057;-67
2022/06/17 10:00:56;;;;;;;3.83;2.00;;;;;;;14.62;60.83;101043.41;5051825;28;20049;-67
2022/06/17 10:03:28;;;;;;;4.72;1.58;;;;;;;14.39;61.56;101064.84;5051573;28;20051;-66
2022/06/17 10:06:22;;;;;;;2.00;1.67;;;;;;;14.30;62.19;101068.59;5051817;28;20093;-67
2022/06/17 10:09:13;;;;;;;6.60;2.50;;;;;;;14.33;62.00;101082.47;5051775;28;20068;-66
2022/06/17 10:11:55;;;;;;;2.10;1.70;;;;;;;14.18;61.91;101057.50;5051491;28;20126;-67
2022/06/17 10:15:02;;;;;;;3.63;1.80;;;;;;;14.34;61.83;101067.22;5051463;28;20498;-66
2022/06/17 10:20:49;;;;;;;4.47;1.70;;;;;;;14.35;62.63;101072.41;5051642;28;20120;-68
2022/06/17 10:23:18;;;;;;;8.77;1.87;;;;;;;14.28;63.24;101095.56;5051237;28;20025;-68
2022/06/17 10:25:59;;;;;;;1.90;1.40;;;;;;;14.10;63.87;101078.97;5051342;28;20527;-65
2022/06/17 10:28:36;;;;;;;3.50;2.00;;;;;;;13.96;64.77;101091.28;5051491;28;20033;-66
2022/06/17 10:31:12;;;;;;;4.87;1.80;;;;;;;13.85;65.04;101088.97;5051353;28;20086;-67
2022/06/17 10:33:39;;;;;;;7.13;2.17;;;;;;;13.83;65.78;101097.19;5051061;28;20294;-66
2022/06/17 10:36:06;;;;;;;4.87;1.90;;;;;;;13.73;66.36;101096.59;5051264;28;20091;-66
2022/06/17 10:38:38;;;;;;;9.17;3.47;;;;;;;13.79;67.06;101113.78;5054298;28;20051;-64
2022/06/17 10:41:05;;;;;;;2.97;2.30;;;;;;;13.43;68.96;101090.19;5055058;28;20524;-65
2022/06/17 10:43:44;;;;;;;6.33;2.43;;;;;;;13.63;70.17;101122.72;5054638;28;20127;-66
2022/06/17 10:46:33;;;;;;;;;;;;;;;13.70;68.95;101130.91;5055099;28;20040;-66
2022/06/17 10:49:17;;;;;;;2.43;2.17;;;;;;;13.70;70.10;101131.72;5048925;28;20031;-65
2022/06/17 10:51:45;;;;;;;2.50;1.97;;;;;;;13.66;71.32;101133.09;5054984;28;20519;-66
2022/06/17 10:54:34;;;;;;;4.20;1.80;;;;;;;13.36;71.57;101085.72;5054558;28;20384;-66
2022/06/17 10:57:08;;;;;;;4.23;2.03;;;;;;;13.64;71.49;101119.88;5053294;28;20056;-67
2022/06/17 10:59:34;;;;;;;2.33;2.13;;;;;;;13.94;71.59;101130.78;5054685;28;20047;-66
2022/06/17 11:01:59;;;;;;;4.77;2.57;;;;;;;14.16;71.61;101118.41;5053479;28;20439;-65
2022/06/17 11:04:39;;;;;;;2.57;2.30;;;;;;;14.23;69.04;101111.34;5054255;28;20504;-66
2022/06/17 11:07:16;;;;;;;2.77;2.57;;;;;;;14.18;69.17;101090.47;5053265;28;20408;-67
2022/06/17 11:09:55;;;;;;;2.70;2.27;;;;;;;14.52;67.71;101140.16;5054481;28;20037;-67
2022/06/17 11:12:27;;;;;;;1.97;1.83;;;;;;;14.73;66.43;101134.09;5053251;28;20280;-66
2022/06/17 11:15:00;;;;;;;2.13;1.93;;;;;;;14.93;65.47;101127.22;5054560;28;20079;-66
2022/06/17 11:17:41;;;;;;;1.53;1.43;;;;;;;14.49;64.92;101028.78;5054422;28;20033;-64
2022/06/17 11:20:24;;;;;;;4.23;2.27;;;;;;;15.21;64.94;101126.63;5053500;28;20124;-67
2022/06/17 11:22:56;;;;;;;5.60;1.80;;;;;;;15.42;65.15;101126.72;5055108;28;20041;-68
2022/06/17 11:25:22;;;;;;;3.33;1.97;;;;;;;15.56;65.57;101144.66;5054602;28;20086;-64
2022/06/17 11:27:57;;;;;;;7.93;3.00;;;;;;;15.37;64.73;101124.59;5054529;28;20048;-65
2022/06/17 11:30:31;;;;;;;5.67;2.10;;;;;;;15.05;64.55;101117.75;5053862;28;20040;-66
2022/06/17 11:32:59;;;;;;;4.07;2.20;;;;;;;14.77;65.40;101114.81;5053997;28;20032;-67
2022/06/17 11:35:34;;;;;;;2.33;2.03;;;;;;;14.91;65.84;101129.25;5052780;28;20470;-68
2022/06/17 11:38:01;;;;;;;4.83;2.00;;;;;;;14.90;65.56;101135.63;5053879;28;20062;-68
2022/06/17 11:40:53;;;;;;;4.15;1.92;;;;;;;14.79;66.15;101133.41;5053823;28;20123;-68
2022/06/17 11:43:38;;;;;;;6.27;2.20;;;;;;;14.85;66.11;101146.91;5054489;28;20385;-65
2022/06/17 11:46:26;;;;;;;4.40;2.20;;;;;;;14.85;64.68;101143.41;5053280;28;20033;-66
2022/06/17 11:48:56;;;;;;;2.63;1.85;;;;;;;14.98;64.56;101146.28;5053954;28;20029;-65
2022/06/17 11:51:33;;;;;;;6.07;2.10;;;;;;;15.15;63.19;101137.06;5053790;28;20087;-66
2022/06/17 11:54:17;;;;;;;5.17;2.30;;;;;;;15.49;63.18;101155.31;5053935;28;20586;-68
2022/06/17 11:56:48;;;;;;;4.17;2.13;;;;;;;15.99;60.78;101152.91;5053470;28;20564;-64
2022/06/17 11:59:50;;;;;;;6.90;1.80;;;;;;;16.02;60.58;101128.34;5053633;28;20127;-65